Time;durP1;ratioP1;P1;durP2;ratioP2;P2;SDS_P1;SDS_P2;PMS_P1;PMS_P2;Temp;Humidity;BMP_temperature;BMP_pressure;BME280_temperature;BME280_humidity;BME280_pressure;Samples;Min_cycle;Max_cycle;Signal;HPM_P1;HPM_P2
2022/03/17 00:00:31;;;;;;;22.70;20.50;;;14.20;56.90;;;-142.21;93.19;112049.66;6037643;23;20417;-80
2022/03/17 00:02:58;;;;;;;23.67;21.23;;;14.20;57.10;;;-142.21;93.23;112049.66;6038273;23;20489;-80
2022/03/17 00:05:25;;;;;;;22.03;19.93;;;14.20;57.10;;;-142.21;92.80;112049.66;6038175;23;20438;-80
2022/03/17 00:07:53;;;;;;;22.13;20.13;;;14.20;57.70;;;-142.21;91.96;112049.66;6038257;23;20433;-80
2022/03/17 00:10:20;;;;;;;22.17;20.10;;;14.20;57.10;;;-142.21;92.71;112049.66;6037880;23;20418;-80
2022/03/17 00:12:49;;;;;;;20.77;18.77;;;14.10;57.10;;;-142.21;92.57;112049.66;6038753;23;20406;-80
2022/03/17 00:15:17;;;;;;;22.70;20.50;;;14.10;57.30;;;-142.21;92.17;112049.66;6038194;23;20934;-80
2022/03/17 00:17:46;;;;;;;22.77;20.57;;;14.10;57.20;;;-142.21;92.44;112049.66;6039269;23;20422;-79
2022/03/17 00:20:14;;;;;;;22.97;20.87;;;14.10;57.20;;;-142.21;91.88;112049.66;6038873;23;20417;-80
2022/03/17 00:22:42;;;;;;;22.97;20.87;;;14.20;56.80;;;-142.21;91.91;112049.66;6037652;23;20827;-80
2022/03/17 00:25:12;;;;;;;21.80;19.70;;;14.20;56.80;;;-142.21;92.38;112049.66;6038479;23;20398;-81
2022/03/17 00:27:40;;;;;;;23.00;20.70;;;14.20;56.90;;;-142.21;91.66;112049.66;6037626;23;20415;-80
2022/03/17 00:30:09;;;;;;;24.07;21.67;;;14.30;56.90;;;-142.21;94.56;112049.66;6037796;23;20478;-79
2022/03/17 00:32:38;;;;;;;23.00;20.80;;;14.30;56.60;;;-142.21;92.54;112049.66;6038751;23;20406;-80
2022/03/17 00:37:52;;;;;;;24.63;22.23;;;14.10;57.10;;;-142.21;91.77;112049.66;6039752;23;20382;-79
2022/03/17 00:40:19;;;;;;;22.60;20.30;;;14.20;56.70;;;-142.21;92.25;112049.66;6042967;23;20418;-76
2022/03/17 00:42:47;;;;;;;23.37;21.20;;;14.20;56.60;;;-142.21;91.91;112049.66;6063566;23;20454;-78
2022/03/17 00:45:16;;;;;;;23.73;21.33;;;14.20;56.40;;;-142.21;93.48;112049.66;6064894;23;20414;-79
2022/03/17 00:47:43;;;;;;;23.00;20.90;;;14.40;56.80;;;-142.21;93.92;112049.66;6064635;23;20414;-77
2022/03/17 00:50:12;;;;;;;23.20;21.10;;;14.50;56.50;;;-142.21;93.54;112049.66;6063518;23;20430;-78
2022/03/17 00:52:39;;;;;;;23.77;21.57;;;14.60;56.40;;;-142.21;93.85;112049.66;6064558;23;20428;-78
2022/03/17 00:55:08;;;;;;;22.27;20.27;;;14.60;56.30;;;-142.21;94.31;112049.66;6063988;23;20403;-78
2022/03/17 00:57:37;;;;;;;22.60;20.40;;;14.70;56.40;;;-142.21;94.12;112049.66;6063250;23;20402;-79
2022/03/17 01:00:06;;;;;;;23.60;21.47;;;14.80;56.30;;;-142.21;94.18;112049.66;6045993;23;20906;-78
2022/03/17 01:02:35;;;;;;;23.57;21.30;;;14.70;56.00;;;-142.21;94.51;112049.66;6040284;23;20441;-80
2022/03/17 01:05:03;;;;;;;23.03;20.73;;;14.80;56.00;;;-142.21;94.70;112049.66;6039494;23;20402;-80
2022/03/17 01:07:32;;;;;;;25.10;22.70;;;14.80;56.20;;;-142.21;93.86;112049.66;6039787;23;20399;-79
2022/03/17 01:10:00;;;;;;;24.73;22.40;;;14.80;55.70;;;-142.21;93.46;112049.66;6039461;23;20505;-81
2022/03/17 01:12:27;;;;;;;23.87;21.63;;;14.60;55.90;;;-142.21;93.37;112049.66;6040040;23;20406;-80
2022/03/17 01:14:54;;;;;;;24.90;22.57;;;14.60;56.10;;;-142.21;94.04;112049.66;6039930;23;20448;-79
2022/03/17 01:17:22;;;;;;;25.13;22.83;;;14.60;55.90;;;-142.21;93.62;112049.66;6039842;23;20406;-81
2022/03/17 01:19:50;;;;;;;24.50;22.20;;;14.50;56.00;;;-142.21;94.20;112049.66;6039763;23;20414;-81
2022/03/17 01:22:18;;;;;;;23.13;21.03;;;14.60;56.20;;;-142.21;93.92;112049.66;6039778;23;20775;-80
2022/03/17 01:24:47;;;;;;;24.73;22.40;;;14.60;56.30;;;-142.21;94.18;112049.66;6040336;23;20403;-81
2022/03/17 01:27:15;;;;;;;24.23;21.93;;;14.70;55.90;;;-142.21;93.77;112049.66;6038731;23;20426;-79
2022/03/17 01:29:43;;;;;;;25.77;23.17;;;14.70;55.70;;;-142.21;93.21;112049.66;6039604;23;20423;-81
2022/03/17 01:32:10;;;;;;;24.83;22.60;;;14.50;55.70;;;-142.21;93.45;112049.66;6039532;23;21001;-80
2022/03/17 01:34:38;;;;;;;25.77;23.37;;;14.60;56.30;;;-142.21;94.06;112049.66;6039606;23;20414;-81
2022/03/17 01:37:06;;;;;;;25.40;23.10;;;14.60;56.10;;;-142.21;93.92;112049.66;6039661;23;20731;-81
2022/03/17 01:39:34;;;;;;;24.37;21.80;;;14.60;56.00;;;-142.21;94.07;112049.66;6038887;23;20719;-81
2022/03/17 01:42:06;;;;;;;25.17;22.73;;;14.60;56.10;;;-142.21;94.76;112049.66;6039600;23;20414;-80
2022/03/17 01:44:33;;;;;;;25.50;23.10;;;14.70;56.20;;;-142.21;94.16;112049.66;6039103;23;20438;-81
2022/03/17 01:49:46;;;;;;;25.43;23.03;;;14.60;56.40;;;-142.21;94.58;112049.66;6039671;23;20469;-80
2022/03/17 01:52:15;;;;;;;24.73;22.33;;;14.60;56.00;;;-142.21;93.83;112049.66;6039403;23;20461;-80
2022/03/17 01:54:44;;;;;;;24.93;22.60;;;14.60;55.80;;;-142.21;94.96;112049.66;6038644;23;20455;-81
2022/03/17 01:57:13;;;;;;;24.23;21.90;;;14.60;56.10;;;-142.21;94.57;112049.66;6039326;23;20478;-81
2022/03/17 01:59:42;;;;;;;25.37;22.97;;;14.60;56.10;;;-142.21;95.29;112049.66;6038687;23;20813;-81
2022/03/17 02:02:12;;;;;;;25.50;23.00;;;14.70;56.20;;;-142.21;96.10;112049.66;6039830;23;20418;-81
2022/03/17 02:04:42;;;;;;;24.93;22.57;;;14.70;56.20;;;-142.21;96.42;112049.66;6038623;23;20450;-80
2022/03/17 02:07:14;;;;;;;23.37;21.27;;;14.80;56.40;;;-142.21;96.47;112049.66;6039726;23;20414;-80
2022/03/17 02:09:44;;;;;;;24.90;22.50;;;14.80;56.90;;;-142.21;96.00;112049.66;6039177;23;20454;-79
2022/03/17 02:15:00;;;;;;;24.47;22.17;;;14.80;56.10;;;-142.21;96.25;112049.66;6039539;23;20887;-81
2022/03/17 02:17:30;;;;;;;25.73;23.33;;;14.80;56.30;;;-142.21;96.99;112049.66;6039395;23;20418;-81
2022/03/17 02:19:59;;;;;;;24.17;21.63;;;14.80;56.40;;;-142.21;97.97;112049.66;6038866;23;20430;-80
2022/03/17 02:22:30;;;;;;;25.03;22.83;;;14.80;56.50;;;-142.21;97.94;112049.66;6039574;23;20889;-81
2022/03/17 02:27:46;;;;;;;25.10;22.80;;;14.80;56.60;;;-142.21;97.74;112049.66;6038658;23;20421;-80
2022/03/17 02:30:18;;;;;;;25.40;23.10;;;14.70;56.60;;;-142.21;98.18;112049.66;6039295;23;20430;-81
2022/03/17 02:32:46;;;;;;;25.33;22.93;;;14.70;56.60;;;-142.21;99.10;112049.66;6038841;23;20461;-79
2022/03/17 02:35:15;;;;;;;25.80;23.33;;;14.70;57.00;;;-142.21;99.06;112049.66;6039062;23;20414;-80
2022/03/17 02:37:43;;;;;;;25.13;22.77;;;14.60;57.10;;;-142.21;99.89;112049.66;6038677;23;20414;-80
2022/03/17 02:40:13;;;;;;;24.40;22.03;;;14.60;57.10;;;-142.21;99.40;112049.66;6038197;23;20701;-80
2022/03/17 02:42:40;;;;;;;27.30;24.50;;;14.60;57.00;;;-142.21;99.10;112049.66;6039206;23;20724;-80
2022/03/17 02:45:11;;;;;;;26.10;23.80;;;14.60;57.00;;;-142.21;100.00;112049.66;6038487;23;20418;-81
2022/03/17 02:47:39;;;;;;;26.50;23.90;;;14.60;57.80;;;-142.21;100.00;112049.66;6039236;23;20420;-80
2022/03/17 02:50:10;;;;;;;26.53;23.90;;;14.50;57.50;;;-142.21;100.00;112049.66;6038334;23;20434;-81
2022/03/17 02:52:38;;;;;;;24.60;22.00;;;14.40;57.30;;;-142.21;100.00;112049.66;6038682;23;20438;-81
2022/03/17 02:55:11;;;;;;;25.30;22.90;;;14.40;57.40;;;-142.21;100.00;112049.66;6037793;23;20424;-80
2022/03/17 02:57:40;;;;;;;23.47;21.37;;;14.50;57.10;;;-142.21;100.00;112049.66;6039443;23;20390;-80
2022/03/17 03:00:10;;;;;;;27.87;25.23;;;14.40;57.00;;;-142.21;100.00;112049.66;6038556;23;20895;-81
2022/03/17 03:02:39;;;;;;;27.70;25.10;;;14.40;57.00;;;-142.21;100.00;112049.66;6039237;23;20439;-81
2022/03/17 03:05:08;;;;;;;27.70;24.97;;;14.30;57.10;;;-142.21;100.00;112049.66;6039295;23;20470;-81
2022/03/17 03:07:36;;;;;;;26.50;23.83;;;14.40;57.60;;;-142.21;100.00;112049.66;6039615;23;20394;-81
2022/03/17 03:10:06;;;;;;;26.20;23.70;;;14.30;57.40;;;-142.21;100.00;112049.66;6038592;23;20398;-80
2022/03/17 03:12:33;;;;;;;27.50;24.77;;;14.30;57.70;;;-142.21;100.00;112049.66;6038356;23;20418;-80
2022/03/17 03:15:03;;;;;;;25.33;22.97;;;14.30;57.80;;;-142.21;100.00;112049.66;6039309;23;20417;-80
2022/03/17 03:17:30;;;;;;;24.97;22.57;;;14.30;58.00;;;-142.21;100.00;112049.66;6038158;23;20422;-80
2022/03/17 03:19:58;;;;;;;26.33;23.93;;;14.30;57.70;;;-142.21;100.00;112049.66;6039328;23;20426;-80
2022/03/17 03:22:29;;;;;;;25.60;23.00;;;14.30;57.80;;;-142.21;100.00;112049.66;6037695;23;20415;-81
2022/03/17 03:24:57;;;;;;;25.63;22.93;;;14.20;57.70;;;-142.21;100.00;112049.66;6038653;23;20454;-81
2022/03/17 03:27:27;;;;;;;26.63;24.03;;;14.30;58.10;;;-142.21;100.00;112049.66;6038878;23;20757;-80
2022/03/17 03:29:55;;;;;;;26.50;23.90;;;14.20;58.20;;;-142.21;100.00;112049.66;6038408;23;20490;-79
2022/03/17 03:32:24;;;;;;;26.63;24.13;;;14.20;58.40;;;-142.21;100.00;112049.66;6038719;23;20413;-80
2022/03/17 03:34:53;;;;;;;25.17;22.87;;;14.20;58.50;;;-142.21;100.00;112049.66;6037858;23;20407;-81
2022/03/17 03:37:23;;;;;;;24.03;21.73;;;14.20;58.50;;;-142.21;100.00;112049.66;6038715;23;20718;-80
2022/03/17 03:39:52;;;;;;;24.00;21.60;;;14.10;58.50;;;-142.21;100.00;112049.66;6037863;23;20422;-80
2022/03/17 03:42:20;;;;;;;23.27;20.90;;;14.10;58.80;;;-142.21;100.00;112049.66;6039059;23;20410;-81
2022/03/17 03:44:48;;;;;;;21.97;19.57;;;14.10;58.80;;;-142.21;100.00;112049.66;6037959;23;21010;-80
2022/03/17 03:47:16;;;;;;;23.40;17.93;;;14.00;58.80;;;-142.21;100.00;112049.66;6038608;23;20398;-80
2022/03/17 03:49:45;;;;;;;20.60;17.87;;;14.00;58.80;;;-142.21;100.00;112049.66;6037507;23;20457;-80
2022/03/17 03:52:15;;;;;;;20.13;16.33;;;14.00;58.90;;;-142.21;100.00;112049.66;6038565;23;20947;-81
2022/03/17 03:54:43;;;;;;;22.20;18.20;;;14.00;59.30;;;-142.21;100.00;112049.66;6038808;23;20411;-79
2022/03/17 03:57:11;;;;;;;20.67;15.43;;;14.00;60.10;;;-142.21;100.00;112049.66;6038003;23;20451;-80
2022/03/17 03:59:38;;;;;;;21.63;16.10;;;13.90;59.90;;;-142.21;100.00;112049.66;6038611;23;20414;-80
2022/03/17 04:02:08;;;;;;;21.50;16.50;;;13.90;60.00;;;-142.21;100.00;112049.66;6037790;23;20414;-76
2022/03/17 04:04:39;;;;;;;17.33;14.10;;;13.90;60.20;;;-142.21;100.00;112049.66;6038741;23;20450;-78
2022/03/17 04:07:11;;;;;;;18.10;13.93;;;13.90;60.40;;;-142.21;100.00;112049.66;6038317;23;20455;-76
2022/03/17 04:09:41;;;;;;;20.13;13.63;;;14.00;60.80;;;-142.21;100.00;112049.66;6041382;23;20827;-80
2022/03/17 04:12:12;;;;;;;17.27;13.13;;;13.90;61.40;;;-142.21;100.00;112049.66;6040399;23;20472;-76
2022/03/17 04:14:40;;;;;;;16.57;12.93;;;13.90;61.50;;;-142.21;100.00;112049.66;6041042;23;20418;-78
2022/03/17 04:17:08;;;;;;;17.27;13.83;;;13.90;61.10;;;-142.21;100.00;112049.66;6040111;23;20450;-76
2022/03/17 04:19:35;;;;;;;21.97;14.97;;;14.00;61.10;;;-142.21;100.00;112049.66;6040013;23;20422;-78
2022/03/17 04:22:02;;;;;;;19.33;14.77;;;14.00;61.40;;;-142.21;100.00;112049.66;6040614;23;20422;-79
2022/03/17 04:24:31;;;;;;;19.90;14.87;;;13.90;61.70;;;-142.21;100.00;112049.66;6039369;23;20453;-79
2022/03/17 04:26:58;;;;;;;19.07;14.13;;;13.90;62.20;;;-142.21;100.00;112049.66;6040099;23;20479;-75
2022/03/17 04:29:28;;;;;;;21.03;14.80;;;13.90;61.70;;;-142.21;100.00;112049.66;6040086;23;20437;-80
2022/03/17 04:31:55;;;;;;;17.80;13.90;;;13.80;61.60;;;-142.21;100.00;112049.66;6040267;23;20497;-77
2022/03/17 04:34:22;;;;;;;18.50;14.47;;;13.90;61.80;;;-142.21;100.00;112049.66;6039969;23;20415;-78
2022/03/17 04:36:50;;;;;;;20.33;14.27;;;13.90;61.10;;;-142.21;100.00;112049.66;6040460;23;20502;-78
2022/03/17 04:39:17;;;;;;;19.93;14.53;;;13.90;61.90;;;-142.21;100.00;112049.66;6040558;23;20422;-79
2022/03/17 04:41:48;;;;;;;18.60;13.33;;;13.80;62.20;;;-142.21;100.00;112049.66;6040338;23;20406;-76
2022/03/17 04:44:15;;;;;;;22.53;15.30;;;13.90;61.40;;;-142.21;100.00;112049.66;6040941;23;20434;-77
2022/03/17 04:46:43;;;;;;;19.87;14.70;;;13.90;61.40;;;-142.21;100.00;112049.66;6039779;23;20422;-78
2022/03/17 04:49:11;;;;;;;17.90;14.07;;;13.90;61.00;;;-142.21;100.00;112049.66;6039981;23;20421;-79
2022/03/17 04:51:38;;;;;;;16.80;13.83;;;13.90;60.70;;;-142.21;100.00;112049.66;6040120;23;20528;-77
2022/03/17 04:54:07;;;;;;;19.53;13.67;;;13.90;61.30;;;-142.21;100.00;112049.66;6040461;23;20411;-77
2022/03/17 04:56:35;;;;;;;19.93;14.43;;;13.90;62.20;;;-142.21;100.00;112049.66;6039800;23;20394;-76
2022/03/17 04:59:04;;;;;;;19.63;14.63;;;13.90;63.00;;;-142.21;100.00;112049.66;6040083;23;20799;-76
2022/03/17 05:01:37;;;;;;;20.10;14.23;;;13.70;64.10;;;-142.21;100.00;112049.66;6040571;23;20402;-77
2022/03/17 05:04:05;;;;;;;19.87;14.87;;;13.60;63.90;;;-142.21;100.00;112049.66;6040569;23;20469;-78
2022/03/17 05:06:34;;;;;;;18.93;15.10;;;13.70;63.80;;;-142.21;100.00;112049.66;6040177;23;20419;-79
2022/03/17 05:09:01;;;;;;;17.73;13.60;;;13.80;63.00;;;-142.21;100.00;112049.66;6039777;23;20463;-80
2022/03/17 05:11:28;;;;;;;19.50;14.03;;;13.90;62.30;;;-142.21;100.00;112049.66;6040300;23;20483;-78
2022/03/17 05:13:56;;;;;;;20.83;14.87;;;13.90;63.00;;;-142.21;100.00;112049.66;6040188;23;20459;-79
2022/03/17 05:16:24;;;;;;;19.63;14.43;;;13.90;62.90;;;-142.21;100.00;112049.66;6040622;23;20398;-80
2022/03/17 05:18:52;;;;;;;22.23;15.93;;;14.00;62.80;;;-142.21;100.00;112049.66;6039017;23;20789;-75
2022/03/17 05:21:20;;;;;;;20.23;14.80;;;14.00;62.60;;;-142.21;100.00;112049.66;6040594;23;20410;-78
2022/03/17 05:23:47;;;;;;;23.70;14.03;;;14.00;63.30;;;-142.21;100.00;112049.66;6039994;23;20502;-80
2022/03/17 05:26:14;;;;;;;20.87;14.50;;;14.00;62.90;;;-142.21;100.00;112049.66;6039777;23;20437;-77
2022/03/17 05:28:42;;;;;;;18.53;14.27;;;14.00;63.50;;;-142.21;100.00;112049.66;6040286;23;20488;-75
2022/03/17 05:31:09;;;;;;;18.70;13.80;;;14.10;63.40;;;-142.21;100.00;112049.66;6039553;23;20919;-80
2022/03/17 05:33:38;;;;;;;19.80;15.33;;;14.10;62.80;;;-142.21;100.00;112049.66;6040513;23;20733;-79
2022/03/17 05:36:06;;;;;;;19.20;14.13;;;14.10;62.90;;;-142.21;100.00;112049.66;6039896;23;20414;-75
2022/03/17 05:38:34;;;;;;;18.33;13.90;;;14.00;63.60;;;-142.21;100.00;112049.66;6040147;23;20474;-77
2022/03/17 05:41:01;;;;;;;19.47;14.03;;;14.00;63.40;;;-142.21;100.00;112049.66;6040190;23;20410;-78
2022/03/17 05:43:43;;;;;;;17.63;13.57;;;14.10;62.90;;;-142.21;100.00;112049.66;6039651;23;20484;-75
2022/03/17 05:46:10;;;;;;;17.23;13.67;;;14.10;62.80;;;-142.21;100.00;112049.66;5925026;24;20418;-77
2022/03/17 05:48:40;;;;;;;17.00;12.53;;;14.10;63.30;;;-142.21;100.00;112049.66;5925532;24;20406;-78
2022/03/17 05:51:08;;;;;;;18.73;14.07;;;13.80;64.10;;;-142.21;100.00;112049.66;5925477;24;20434;-77
2022/03/17 05:53:35;;;;;;;18.43;14.20;;;13.80;64.90;;;-142.21;100.00;112049.66;5925201;24;20855;-78
2022/03/17 05:56:02;;;;;;;20.53;13.87;;;13.80;64.00;;;-142.21;100.00;112049.66;5925384;24;20410;-79
2022/03/17 05:58:30;;;;;;;18.73;13.20;;;13.90;63.90;;;-142.21;100.00;112049.66;5924899;24;20414;-80
2022/03/17 06:00:58;;;;;;;21.27;14.60;;;13.90;63.90;;;-142.21;100.00;112049.66;5925508;24;20971;-79
2022/03/17 06:03:25;;;;;;;19.07;13.90;;;13.90;64.50;;;-142.21;100.00;112049.66;5924261;24;20505;-79
2022/03/17 06:05:54;;;;;;;18.67;14.47;;;13.90;64.60;;;-142.21;100.00;112049.66;5925078;24;20450;-78
2022/03/17 06:08:22;;;;;;;18.13;14.00;;;13.80;64.80;;;-142.21;100.00;112049.66;5925024;24;20418;-80
2022/03/17 06:10:49;;;;;;;22.03;15.03;;;13.90;64.80;;;-142.21;100.00;112049.66;5924553;24;20402;-78
2022/03/17 06:13:18;;;;;;;19.67;14.47;;;13.80;64.70;;;-142.21;100.00;112049.66;5925159;24;20417;-78
2022/03/17 06:15:46;;;;;;;19.97;14.30;;;13.80;64.90;;;-142.21;100.00;112049.66;5924366;24;20441;-80
2022/03/17 06:18:13;;;;;;;21.73;13.93;;;13.80;64.40;;;-142.21;100.00;112049.66;5924770;24;20422;-76
2022/03/17 06:20:40;;;;;;;20.37;14.40;;;13.90;64.40;;;-142.21;100.00;112049.66;5923974;24;20479;-78
2022/03/17 06:23:09;;;;;;;22.07;14.10;;;13.90;63.90;;;-142.21;100.00;112049.66;5980022;23;20419;-78
2022/03/17 06:25:38;;;;;;;21.03;14.87;;;14.00;64.30;;;-142.21;100.00;112049.66;6039153;23;20453;-77
2022/03/17 06:28:06;;;;;;;21.57;14.73;;;14.00;64.30;;;-142.21;100.00;112049.66;6039182;23;20510;-76
2022/03/17 06:30:35;;;;;;;19.60;15.43;;;14.00;64.60;;;-142.21;100.00;112049.66;6039165;23;20478;-77
2022/03/17 06:33:04;;;;;;;24.80;15.57;;;14.00;65.00;;;-142.21;100.00;112049.66;6039053;23;20491;-79
2022/03/17 06:35:32;;;;;;;20.27;14.70;;;14.00;64.70;;;-142.21;100.00;112049.66;6040075;23;20410;-78
2022/03/17 06:38:08;;;;;;;24.20;15.93;;;14.00;65.20;;;-142.21;100.00;112049.66;6039409;23;20411;-77
2022/03/17 06:40:37;;;;;;;22.67;15.43;;;13.90;65.20;;;-142.21;100.00;112049.66;6039603;23;20966;-79
2022/03/17 06:43:05;;;;;;;21.67;14.83;;;14.10;65.40;;;-142.21;100.00;112049.66;6038954;23;20522;-76
2022/03/17 06:45:55;;;;;;;22.17;15.67;;;14.00;65.50;;;-142.21;100.00;112049.66;5130694;27;20565;-78
2022/03/17 06:48:22;;;;;;;22.33;14.87;;;14.00;65.40;;;-142.21;100.00;112049.66;5110798;28;20457;-80
2022/03/17 06:50:49;;;;;;;22.40;15.60;;;14.10;65.20;;;-142.21;100.00;112049.66;5110863;28;20453;-80
2022/03/17 06:53:17;;;;;;;20.37;14.80;;;14.00;65.60;;;-142.21;100.00;112049.66;5110554;28;20475;-78
2022/03/17 06:55:44;;;;;;;23.73;15.70;;;14.00;65.80;;;-142.21;100.00;112049.66;5110387;28;20445;-79
2022/03/17 06:58:11;;;;;;;20.83;16.00;;;13.90;65.90;;;-142.21;100.00;112049.66;5110012;28;20430;-78
2022/03/17 07:00:39;;;;;;;21.83;16.83;;;13.90;66.50;;;-142.21;100.00;112049.66;5110958;28;20434;-80
2022/03/17 07:03:07;;;;;;;23.57;15.60;;;14.00;67.30;;;-142.21;100.00;112049.66;5110360;28;20540;-81
2022/03/17 07:05:35;;;;;;;23.23;15.80;;;13.90;67.00;;;-142.21;100.00;112049.66;5109945;28;20504;-80
2022/03/17 07:08:02;;;;;;;23.33;15.93;;;13.90;67.10;;;-142.21;100.00;112049.66;5109847;28;20446;-79
2022/03/17 07:10:29;;;;;;;24.67;16.50;;;13.90;67.70;;;-142.21;100.00;112049.66;5089546;28;20450;-78
2022/03/17 07:12:57;;;;;;;22.23;15.87;;;13.80;68.20;;;-142.21;100.00;112049.66;5091182;28;20450;-78
2022/03/17 07:15:24;;;;;;;22.13;16.07;;;13.70;68.30;;;-142.21;100.00;112049.66;5109248;28;20452;-79
2022/03/17 07:17:52;;;;;;;26.17;17.57;;;13.70;68.50;;;-142.21;100.00;112049.66;5110022;28;20503;-78
2022/03/17 07:20:23;;;;;;;23.57;16.80;;;13.60;69.10;;;-142.21;100.00;112049.66;5109103;28;20434;-79
2022/03/17 07:22:51;;;;;;;25.93;17.17;;;13.60;69.00;;;-142.21;100.00;112049.66;5109645;28;20894;-79
2022/03/17 07:25:19;;;;;;;23.60;17.80;;;13.60;69.70;;;-142.21;100.00;112049.66;5108663;28;20580;-80
2022/03/17 07:27:49;;;;;;;26.23;18.87;;;13.60;69.90;;;-142.21;100.00;112049.66;5109078;28;20453;-79
2022/03/17 07:30:19;;;;;;;27.20;18.33;;;13.60;70.80;;;-142.21;100.00;112049.66;5109210;28;20446;-80
2022/03/17 07:32:48;;;;;;;25.03;17.10;;;13.70;70.40;;;-142.21;100.00;112049.66;5109808;28;20776;-80
2022/03/17 07:35:16;;;;;;;25.57;17.33;;;13.70;69.50;;;-142.21;100.00;112049.66;5109151;28;20448;-81
2022/03/17 07:37:46;;;;;;;23.67;16.10;;;13.80;70.10;;;-142.21;100.00;112049.66;5109633;28;20500;-78
2022/03/17 07:40:13;;;;;;;25.90;17.23;;;13.80;69.70;;;-142.21;100.00;112049.66;5109834;28;20477;-80
2022/03/17 07:42:41;;;;;;;25.13;17.17;;;13.90;69.60;;;-142.21;100.00;112049.66;5106804;28;20518;-78
2022/03/17 07:45:14;;;;;;;25.30;17.63;;;13.90;69.60;;;-142.21;100.00;112049.66;5107443;28;20580;-80
2022/03/17 07:47:47;;;;;;;24.03;17.30;;;14.10;69.60;;;-142.21;100.00;112049.66;5092433;28;20768;-80
2022/03/17 07:50:15;;;;;;;23.93;16.87;;;14.00;70.10;;;-142.21;100.00;112049.66;5088865;28;20465;-76
2022/03/17 07:52:43;;;;;;;22.63;16.63;;;14.00;69.70;;;-142.21;100.00;112049.66;5089461;28;20501;-80
2022/03/17 07:55:12;;;;;;;26.17;17.03;;;14.10;69.20;;;-142.21;100.00;112049.66;5087020;28;20470;-78
2022/03/17 07:57:41;;;;;;;22.17;16.20;;;14.10;69.20;;;-142.21;100.00;112049.66;5077205;28;20886;-76
2022/03/17 08:00:11;;;;;;;22.50;17.10;;;14.10;69.80;;;-142.21;100.00;112049.66;5096189;28;20439;-83
2022/03/17 08:02:40;;;;;;;23.10;16.03;;;14.10;69.40;;;-142.21;100.00;112049.66;5089849;28;20444;-80
2022/03/17 08:05:19;;;;;;;24.37;17.27;;;14.20;69.20;;;-142.21;100.00;112049.66;5075311;28;21028;-81
2022/03/17 08:08:05;;;;;;;23.17;16.47;;;14.30;69.10;;;-142.21;100.00;112049.66;5075485;28;20493;-81
2022/03/17 08:10:34;;;;;;;23.73;16.33;;;14.30;68.90;;;-142.21;100.00;112049.66;5075273;28;20436;-81
2022/03/17 08:13:02;;;;;;;25.30;17.47;;;14.30;68.40;;;-142.21;100.00;112049.66;5075794;28;20509;-78
2022/03/17 08:15:29;;;;;;;25.07;17.47;;;14.30;68.70;;;-142.21;100.00;112049.66;5079818;28;20462;-78
2022/03/17 08:17:56;;;;;;;25.03;18.03;;;14.40;68.70;;;-142.21;100.00;112049.66;5093034;28;20449;-81
2022/03/17 08:20:24;;;;;;;25.37;17.73;;;14.40;68.50;;;-142.21;100.00;112049.66;5095853;28;20462;-81
2022/03/17 08:22:52;;;;;;;28.37;18.60;;;14.30;68.80;;;-142.21;100.00;112049.66;5076971;28;20448;-80
2022/03/17 08:25:20;;;;;;;27.37;18.90;;;14.30;69.00;;;-142.21;100.00;112049.66;5075889;28;20567;-78
2022/03/17 08:27:50;;;;;;;25.80;18.53;;;14.30;69.10;;;-142.21;100.00;112049.66;5075132;28;20436;-77
2022/03/17 08:30:18;;;;;;;26.87;18.60;;;14.40;69.10;;;-142.21;100.00;112049.66;5075657;28;20478;-78
2022/03/17 08:32:45;;;;;;;27.37;18.73;;;14.40;69.30;;;-142.21;100.00;112049.66;5076059;28;20432;-77
2022/03/17 08:35:14;;;;;;;26.97;18.63;;;14.40;69.30;;;-142.21;100.00;112049.66;5075660;28;20448;-77
2022/03/17 08:37:42;;;;;;;28.93;18.93;;;14.50;69.50;;;-142.21;100.00;112049.66;5076425;28;20553;-78
2022/03/17 08:40:11;;;;;;;24.90;17.50;;;14.50;69.60;;;-142.21;100.00;112049.66;5077699;28;20462;-78
2022/03/17 08:42:39;;;;;;;28.97;20.00;;;14.50;69.10;;;-142.21;100.00;112049.66;5095106;28;20433;-79
2022/03/17 08:50:39;;;;;;;24.07;17.13;;;14.50;69.00;;;-142.21;100.00;112049.66;5094682;28;20429;-81
2022/03/17 08:53:07;;;;;;;27.80;19.33;;;14.60;69.10;;;-142.21;100.00;112049.66;5094550;28;20433;-80
2022/03/17 08:55:36;;;;;;;26.70;19.60;;;14.70;68.60;;;-142.21;100.00;112049.66;5091103;28;20467;-79
2022/03/17 08:58:04;;;;;;;27.50;20.10;;;14.80;68.40;;;-142.21;100.00;112049.66;5073908;28;20448;-79
2022/03/17 09:00:34;;;;;;;26.13;18.50;;;14.80;68.20;;;-142.21;100.00;112049.66;5074337;28;20466;-79
2022/03/17 09:03:02;;;;;;;30.83;21.10;;;14.80;68.00;;;-142.21;100.00;112049.66;5079088;28;20438;-78
2022/03/17 09:05:30;;;;;;;28.90;19.17;;;14.80;67.80;;;-142.21;100.00;112049.66;5093404;28;20651;-79
2022/03/17 09:07:58;;;;;;;26.43;19.03;;;14.90;67.60;;;-142.21;100.00;112049.66;5093259;28;20882;-79
2022/03/17 09:10:25;;;;;;;29.17;19.67;;;14.90;67.00;;;-142.21;100.00;112049.66;5093630;28;20819;-79
2022/03/17 09:12:57;;;;;;;25.33;18.83;;;14.90;67.20;;;-142.21;100.00;112049.66;5094879;28;20533;-80
2022/03/17 09:15:25;;;;;;;25.73;18.73;;;14.90;67.10;;;-142.21;100.00;112049.66;5085828;28;20506;-80
2022/03/17 09:17:54;;;;;;;27.43;19.17;;;15.00;67.30;;;-142.21;100.00;112049.66;5074429;28;20919;-81
2022/03/17 09:20:21;;;;;;;26.00;18.83;;;15.10;66.60;;;-142.21;100.00;112049.66;5074406;28;20486;-81
2022/03/17 09:22:49;;;;;;;29.10;19.77;;;15.20;66.50;;;-142.21;100.00;112049.66;5074498;28;20455;-80
2022/03/17 09:25:23;;;;;;;26.57;18.93;;;15.20;66.20;;;-142.21;100.00;112049.66;5073943;28;20518;-81
2022/03/17 09:27:51;;;;;;;23.60;18.10;;;15.30;65.80;;;-142.21;100.00;112049.66;5074943;28;20461;-79
2022/03/17 09:30:19;;;;;;;28.73;19.13;;;15.20;65.00;;;-142.21;100.00;112049.66;5073901;28;21020;-81
2022/03/17 09:32:46;;;;;;;23.77;18.90;;;15.20;65.40;;;-142.21;100.00;112049.66;5074250;28;20454;-81
2022/03/17 09:35:16;;;;;;;24.53;18.03;;;15.20;65.20;;;-142.21;100.00;112049.66;5074617;28;20451;-81
2022/03/17 09:37:43;;;;;;;23.27;17.83;;;15.20;65.40;;;-142.21;100.00;112049.66;5073490;28;20951;-82
2022/03/17 09:40:12;;;;;;;23.90;18.47;;;15.30;65.00;;;-142.21;100.00;112049.66;5074469;28;20525;-82
2022/03/17 09:42:40;;;;;;;26.67;19.17;;;15.20;64.60;;;-142.21;100.00;112049.66;5073768;28;20436;-83
2022/03/17 09:45:10;;;;;;;24.70;18.23;;;15.20;64.80;;;-142.21;100.00;112049.66;5094117;28;20490;-82
2022/03/17 09:47:39;;;;;;;26.53;18.87;;;15.20;64.70;;;-142.21;100.00;112049.66;5094170;28;20450;-82
2022/03/17 09:50:10;;;;;;;26.03;19.43;;;15.30;65.00;;;-142.21;100.00;112049.66;5094621;28;20451;-82
2022/03/17 09:52:42;;;;;;;32.43;22.40;;;15.30;65.00;;;-142.21;100.00;112049.66;5093981;28;20450;-82
2022/03/17 09:55:10;;;;;;;29.37;20.67;;;15.30;64.50;;;-142.21;100.00;112049.66;5094099;28;20454;-81
2022/03/17 09:57:39;;;;;;;24.77;19.93;;;15.40;64.30;;;-142.21;100.00;112049.66;5093632;28;20443;-81
2022/03/17 10:00:11;;;;;;;27.00;21.27;;;15.40;63.80;;;-142.21;100.00;112049.66;5094193;28;20474;-81
2022/03/17 10:02:39;;;;;;;23.83;19.23;;;15.40;63.50;;;-142.21;100.00;112049.66;5093958;28;20449;-82
2022/03/17 10:05:08;;;;;;;26.47;20.30;;;15.50;63.10;;;-142.21;100.00;112049.66;5094709;28;20478;-82